Time;durP1;ratioP1;P1;durP2;ratioP2;P2;SDS_P1;SDS_P2;PMS_P1;PMS_P2;Temp;Humidity;BMP_temperature;BMP_pressure;BME280_temperature;BME280_humidity;BME280_pressure;Samples;Min_cycle;Max_cycle;Signal;HPM_P1;HPM_P2
2020/12/11 00:02:01;;;;;;;18.40;10.00;;;;;;;1.74;80.19;97711.03;5049159;28;20511;-74
2020/12/11 00:04:26;;;;;;;23.15;10.80;;;;;;;1.74;80.44;97719.03;5050455;28;20064;-73
2020/12/11 00:06:51;;;;;;;23.00;10.65;;;;;;;1.67;80.77;97710.06;5049900;28;20080;-74
2020/12/11 00:09:17;;;;;;;22.30;10.07;;;;;;;1.69;80.71;97716.06;5052051;28;20029;-73
2020/12/11 00:11:42;;;;;;;19.77;10.65;;;;;;;1.70;80.96;97707.91;5051162;28;20045;-74
2020/12/11 00:14:07;;;;;;;24.75;10.30;;;;;;;1.67;81.49;97697.56;5051702;28;20110;-73
2020/12/11 00:16:32;;;;;;;21.75;10.05;;;;;;;1.62;81.90;97704.44;5052348;28;20063;-73
2020/12/11 00:18:58;;;;;;;23.27;10.63;;;;;;;1.57;82.02;97701.44;5051379;28;20385;-74
2020/12/11 00:21:23;;;;;;;25.45;11.13;;;;;;;1.52;82.58;97699.31;5045694;28;20047;-74
2020/12/11 00:23:48;;;;;;;25.25;10.55;;;;;;;1.47;82.52;97683.84;5059691;28;20032;-73
2020/12/11 00:26:16;;;;;;;20.10;10.73;;;;;;;1.52;82.84;97699.31;5067505;28;20025;-74
2020/12/11 00:28:41;;;;;;;24.27;11.45;;;;;;;1.48;82.40;97706.00;5050552;28;20471;-74
2020/12/11 00:31:06;;;;;;;20.48;10.80;;;;;;;1.56;82.34;97699.81;5046231;28;20033;-74
2020/12/11 00:33:31;;;;;;;24.38;10.73;;;;;;;1.47;81.96;97691.03;5051527;28;20037;-74
2020/12/11 00:35:57;;;;;;;21.75;11.07;;;;;;;1.50;82.16;97696.00;5051704;28;20029;-73
2020/12/11 00:38:22;;;;;;;20.70;10.45;;;;;;;1.46;82.38;97698.16;5051811;28;20437;-73
2020/12/11 00:40:48;;;;;;;20.58;10.38;;;;;;;1.42;83.09;97709.34;5051802;28;20036;-73
2020/12/11 00:43:13;;;;;;;24.27;10.98;;;;;;;1.46;82.78;97706.16;5051444;28;20075;-70
2020/12/11 00:45:39;;;;;;;27.42;12.02;;;;;;;1.31;83.00;97691.91;5050538;28;20128;-73
2020/12/11 00:48:04;;;;;;;22.13;11.40;;;;;;;1.43;83.08;97693.19;5050888;28;20440;-73
2020/12/11 00:50:29;;;;;;;21.52;11.20;;;;;;;1.62;82.77;97704.44;5050078;28;20447;-73
2020/12/11 00:52:54;;;;;;;24.65;11.60;;;;;;;1.56;82.23;97695.28;5051469;28;20029;-70
2020/12/11 00:55:23;;;;;;;25.67;11.40;;;;;;;1.54;82.05;97684.78;5051749;28;20024;-73
2020/12/11 00:57:48;;;;;;;22.55;10.73;;;;;;;1.74;82.00;97693.19;5061964;28;20048;-73
2020/12/11 01:00:15;;;;;;;23.67;11.25;;;;;;;1.74;81.31;97679.88;5071007;28;20009;-73
2020/12/11 01:02:41;;;;;;;21.05;10.98;;;;;;;1.67;81.05;97670.06;5054763;28;20033;-74
2020/12/11 01:05:07;;;;;;;22.55;11.88;;;;;;;1.59;80.69;97646.97;5050745;28;20029;-74
2020/12/11 01:07:32;;;;;;;24.58;12.10;;;;;;;1.57;81.27;97648.13;5052376;28;20033;-74
2020/12/11 01:09:58;;;;;;;25.52;11.15;;;;;;;1.59;81.01;97648.81;5054600;28;20029;-74
2020/12/11 01:12:23;;;;;;;23.20;11.63;;;;;;;1.54;81.21;97650.13;5054514;28;20021;-74
2020/12/11 01:14:49;;;;;;;26.52;11.95;;;;;;;1.57;81.01;97642.81;5047282;28;20702;-74
2020/12/11 01:17:14;;;;;;;23.15;10.88;;;;;;;1.60;80.81;97655.78;5054750;28;20104;-74
2020/12/11 01:19:39;;;;;;;27.42;11.88;;;;;;;1.50;80.63;97640.84;5054155;28;20033;-73
2020/12/11 01:22:05;;;;;;;24.00;11.55;;;;;;;1.56;81.04;97649.16;5054308;28;20135;-74
2020/12/11 01:24:31;;;;;;;28.58;11.52;;;;;;;1.49;81.04;97644.53;5051336;28;20033;-74
2020/12/11 01:26:57;;;;;;;22.42;11.32;;;;;;;1.50;81.33;97643.50;5054115;28;20087;-74
2020/12/11 01:29:22;;;;;;;25.80;12.07;;;;;;;1.53;80.86;97645.00;5051478;28;20387;-74
2020/12/11 01:31:47;;;;;;;19.48;10.48;;;;;;;1.48;81.09;97631.38;5054363;28;20033;-74
2020/12/11 01:34:12;;;;;;;23.23;11.25;;;;;;;1.45;80.76;97616.56;5056835;28;20067;-74
2020/12/11 01:36:38;;;;;;;21.60;11.68;;;;;;;1.45;81.03;97616.56;5056340;28;20036;-73
2020/12/11 01:39:03;;;;;;;25.90;11.30;;;;;;;1.43;80.87;97605.22;5053451;28;20423;-74
2020/12/11 01:41:31;;;;;;;21.70;11.27;;;;;;;1.45;80.84;97602.41;5052510;28;20090;-74
2020/12/11 01:44:04;;;;;;;20.25;10.60;;;;;;;1.39;80.40;97577.28;5051423;28;20033;-74
2020/12/11 01:46:35;;;;;;;24.83;11.00;;;;;;;1.38;80.58;97572.94;5050740;28;20040;-74
2020/12/11 01:49:00;;;;;;;22.92;10.38;;;;;;;1.35;80.55;97581.28;5053547;28;20028;-74
2020/12/11 01:51:25;;;;;;;27.88;12.68;;;;;;;1.33;81.00;97583.28;5053438;28;20051;-74
2020/12/11 01:53:51;;;;;;;25.15;11.80;;;;;;;1.39;81.04;97611.94;5060219;28;20025;-74
2020/12/11 01:56:17;;;;;;;23.73;11.38;;;;;;;1.43;81.18;97615.88;5051592;28;20041;-74
2020/12/11 01:58:46;;;;;;;24.13;11.65;;;;;;;1.40;81.32;97602.09;5051899;28;20398;-74
2020/12/11 02:01:15;;;;;;;23.15;11.30;;;;;;;1.48;81.36;97608.19;5039556;28;20030;-74
2020/12/11 02:03:42;;;;;;;23.05;12.02;;;;;;;1.48;80.89;97600.22;5050633;28;20037;-74
2020/12/11 02:06:07;;;;;;;21.40;11.20;;;;;;;1.52;80.56;97598.03;5052447;28;20033;-74
2020/12/11 02:08:33;;;;;;;22.10;11.13;;;;;;;1.40;80.84;97570.94;5052567;28;20048;-74
2020/12/11 02:10:59;;;;;;;24.17;11.20;;;;;;;1.37;81.52;97581.97;5052155;28;20056;-73
2020/12/11 02:13:24;;;;;;;21.75;11.23;;;;;;;1.28;81.93;97575.00;5052333;28;20037;-74
2020/12/11 02:15:49;;;;;;;20.52;9.93;;;;;;;1.22;81.98;97559.72;5045197;28;20029;-74
2020/12/11 02:18:15;;;;;;;26.92;12.82;;;;;;;1.26;82.14;97563.72;5048210;28;20091;-74
2020/12/11 02:20:40;;;;;;;25.85;11.68;;;;;;;1.23;82.26;97566.69;5052839;28;20044;-74
2020/12/11 02:23:05;;;;;;;24.45;11.68;;;;;;;1.24;82.56;97561.22;5052468;28;20430;-73
2020/12/11 02:25:30;;;;;;;25.90;12.88;;;;;;;1.19;82.48;97546.75;5052930;28;20455;-73
2020/12/11 02:27:56;;;;;;;25.80;11.20;;;;;;;1.19;82.40;97541.44;5052344;28;20111;-74
2020/12/11 02:30:21;;;;;;;23.77;11.65;;;;;;;1.16;82.39;97539.13;5053035;28;20028;-74
2020/12/11 02:32:46;;;;;;;24.15;11.68;;;;;;;1.09;82.13;97529.16;5029141;28;570969;-74
2020/12/11 02:35:12;;;;;;;24.70;12.15;;;;;;;1.16;82.48;97542.59;5049485;28;20077;-74
2020/12/11 02:37:38;;;;;;;25.00;12.18;;;;;;;1.13;82.45;97539.44;5053171;28;20522;-73
2020/12/11 02:40:05;;;;;;;21.77;11.32;;;;;;;1.12;82.07;97535.97;5051066;28;20025;-74
2020/12/11 02:42:31;;;;;;;22.83;11.85;;;;;;;1.12;81.35;97527.16;5053021;28;20033;-73
2020/12/11 02:44:56;;;;;;;22.10;11.00;;;;;;;1.16;81.11;97523.13;5038487;28;20082;-74
2020/12/11 02:47:21;;;;;;;21.25;10.93;;;;;;;1.07;80.89;97515.19;5046089;28;20021;-73
2020/12/11 02:49:47;;;;;;;21.45;10.25;;;;;;;1.00;81.06;97508.91;5052473;28;20051;-73
2020/12/11 02:52:12;;;;;;;20.58;10.32;;;;;;;1.06;80.41;97502.88;5053629;28;20032;-73
2020/12/11 02:54:38;;;;;;;19.75;10.90;;;;;;;0.91;81.03;97480.66;5053718;28;20029;-74
2020/12/11 02:57:03;;;;;;;21.73;11.60;;;;;;;0.97;81.32;97490.63;5052045;28;20108;-73
2020/12/11 02:59:28;;;;;;;21.30;10.45;;;;;;;0.92;81.37;97486.78;5053262;28;20031;-73
2020/12/11 03:01:53;;;;;;;20.63;10.85;;;;;;;0.73;81.65;97480.06;5053208;28;20486;-73
2020/12/11 03:04:19;;;;;;;20.98;10.63;;;;;;;0.83;81.85;97483.34;5053809;28;20540;-73
2020/12/11 03:06:44;;;;;;;19.17;10.70;;;;;;;0.76;81.51;97467.25;5052063;28;20127;-73
2020/12/11 03:09:10;;;;;;;20.00;10.40;;;;;;;0.70;81.90;97459.13;5053240;28;20529;-73
2020/12/11 03:11:35;;;;;;;24.10;11.23;;;;;;;0.73;81.42;97464.09;5053006;28;20029;-73
2020/12/11 03:14:00;;;;;;;23.15;11.27;;;;;;;0.77;81.79;97474.22;5053514;28;20021;-73
2020/12/11 03:16:25;;;;;;;19.30;10.38;;;;;;;0.72;81.72;97481.09;5053399;28;20024;-73
2020/12/11 03:18:51;;;;;;;21.58;10.73;;;;;;;0.77;81.41;97473.41;5053111;28;20025;-73
2020/12/11 03:21:16;;;;;;;25.15;10.95;;;;;;;0.74;81.67;97455.94;5053322;28;20025;-73
2020/12/11 03:23:42;;;;;;;22.05;11.07;;;;;;;0.76;81.90;97461.09;5052946;28;20024;-74
2020/12/11 03:26:07;;;;;;;25.30;11.98;;;;;;;0.85;81.97;97466.19;5053248;28;20096;-73
2020/12/11 03:28:33;;;;;;;22.83;11.65;;;;;;;0.84;81.71;97477.88;5052083;28;20501;-73
2020/12/11 03:30:59;;;;;;;23.15;11.57;;;;;;;0.76;81.77;97464.59;5048623;28;20017;-73
2020/12/11 03:33:25;;;;;;;20.98;10.88;;;;;;;0.75;82.12;97449.63;5033371;28;20221;-73
2020/12/11 03:35:50;;;;;;;23.60;11.68;;;;;;;0.71;82.22;97453.66;5033083;28;20096;-73
2020/12/11 03:38:16;;;;;;;21.45;11.25;;;;;;;0.70;82.50;97453.81;5038031;28;20032;-73
2020/12/11 03:40:41;;;;;;;22.88;10.93;;;;;;;0.60;82.74;97446.88;5051782;28;20029;-74
2020/12/11 03:43:06;;;;;;;23.48;11.52;;;;;;;0.51;83.05;97450.56;5052458;28;20516;-73
2020/12/11 03:45:31;;;;;;;23.50;11.95;;;;;;;0.52;83.53;97440.75;5050989;28;20474;-74
2020/12/11 03:47:57;;;;;;;23.02;10.93;;;;;;;0.32;83.11;97414.56;5051501;28;20099;-73
2020/12/11 03:50:22;;;;;;;23.30;11.27;;;;;;;0.33;83.57;97415.41;5051190;28;20025;-74
2020/12/11 03:52:47;;;;;;;22.95;11.45;;;;;;;0.24;83.83;97427.91;5052570;28;20474;-73
2020/12/11 03:55:13;;;;;;;25.05;11.57;;;;;;;0.13;84.31;97421.13;5052709;28;20079;-73
2020/12/11 03:57:39;;;;;;;23.30;11.40;;;;;;;0.27;84.23;97434.72;5052616;28;20486;-73
2020/12/11 04:00:05;;;;;;;22.98;11.40;;;;;;;0.26;84.00;97435.69;5052796;28;20039;-73
2020/12/11 04:02:30;;;;;;;22.08;11.68;;;;;;;0.20;84.45;97406.13;5052672;28;20116;-73
2020/12/11 04:04:55;;;;;;;22.08;10.98;;;;;;;0.21;84.08;97409.63;5051278;28;20017;-73
2020/12/11 04:07:21;;;;;;;21.65;11.07;;;;;;;0.12;84.08;97395.53;5051299;28;20028;-73
2020/12/11 04:09:46;;;;;;;27.15;11.35;;;;;;;0.14;84.48;97398.03;5051319;28;20060;-73
2020/12/11 04:12:11;;;;;;;22.65;11.00;;;;;;;0.11;84.30;97396.53;5051348;28;20025;-73
2020/12/11 04:14:36;;;;;;;23.55;11.48;;;;;;;0.13;84.48;97394.53;5052410;28;20078;-74
2020/12/11 04:17:02;;;;;;;24.40;11.82;;;;;;;0.13;84.65;97393.69;5052336;28;20035;-73
2020/12/11 04:19:28;;;;;;;21.92;11.48;;;;;;;-0.04;84.66;97361.03;5052663;28;20025;-73
2020/12/11 04:21:54;;;;;;;19.55;10.32;;;;;;;0.06;84.83;97369.63;5052581;28;20397;-73
2020/12/11 04:24:22;;;;;;;22.38;11.90;;;;;;;0.16;84.85;97380.06;5051478;28;20104;-73
2020/12/11 04:26:47;;;;;;;20.77;10.98;;;;;;;0.13;84.54;97373.25;5051310;28;20022;-73
2020/12/11 04:29:13;;;;;;;21.60;11.40;;;;;;;0.05;84.63;97372.44;5052257;28;20153;-73
2020/12/11 04:31:38;;;;;;;24.08;11.40;;;;;;;-0.03;84.65;97352.03;5052109;28;20082;-73
2020/12/11 04:34:04;;;;;;;23.23;11.10;;;;;;;0.07;84.63;97363.31;5052706;28;20104;-73
2020/12/11 04:36:30;;;;;;;22.17;11.18;;;;;;;0.07;84.52;97373.13;5052174;28;20052;-73
2020/12/11 04:38:55;;;;;;;21.80;11.57;;;;;;;0.03;84.88;97359.34;5052247;28;20478;-74
2020/12/11 04:41:21;;;;;;;22.83;10.90;;;;;;;-0.04;84.87;97353.06;5054512;28;20023;-73
2020/12/11 04:43:50;;;;;;;23.38;10.80;;;;;;;-0.01;84.62;97364.16;5055940;28;20051;-73
2020/12/11 04:46:15;;;;;;;22.75;10.60;;;;;;;-0.08;84.96;97354.38;5055656;28;20051;-73
2020/12/11 04:48:41;;;;;;;25.73;12.52;;;;;;;-0.11;85.08;97349.41;5056386;28;20052;-73
2020/12/11 04:51:07;;;;;;;22.15;11.50;;;;;;;-0.15;85.04;97354.25;5054524;28;20115;-73
2020/12/11 04:53:36;;;;;;;24.10;11.55;;;;;;;-0.16;85.64;97367.69;5055798;28;20048;-74
2020/12/11 04:56:04;;;;;;;24.75;11.40;;;;;;;-0.18;85.79;97375.00;5055307;28;20475;-74
2020/12/11 04:58:31;;;;;;;21.98;10.85;;;;;;;-0.27;85.60;97361.75;5055887;28;20029;-74
2020/12/11 05:01:02;;;;;;;25.77;11.45;;;;;;;-0.36;86.17;97367.28;5055564;28;20052;-74
2020/12/11 05:03:30;;;;;;;24.98;11.40;;;;;;;-0.46;86.52;97360.31;5056070;28;20029;-74
2020/12/11 05:05:55;;;;;;;28.13;13.05;;;;;;;-0.45;85.92;97346.03;5055247;28;20482;-74
2020/12/11 05:08:21;;;;;;;25.38;12.57;;;;;;;-0.36;86.04;97354.00;5057191;28;20036;-74
2020/12/11 05:10:47;;;;;;;24.00;12.45;;;;;;;-0.41;86.39;97359.81;5055516;28;20033;-73
2020/12/11 05:13:17;;;;;;;27.38;12.80;;;;;;;-0.50;86.59;97342.22;5052254;28;20025;-73
2020/12/11 05:15:42;;;;;;;28.85;12.98;;;;;;;-0.57;86.59;97338.59;5054694;28;20108;-74
2020/12/11 05:18:17;;;;;;;29.02;13.07;;;;;;;-0.55;87.10;97332.13;5052887;28;20178;-73
2020/12/11 05:20:43;;;;;;;30.38;12.73;;;;;;;-0.61;86.68;97332.78;5055285;28;20505;-74
2020/12/11 05:23:08;;;;;;;25.88;13.02;;;;;;;-0.61;86.74;97337.25;5053706;28;20032;-74
2020/12/11 05:25:33;;;;;;;27.40;13.50;;;;;;;-0.73;86.90;97320.88;5054885;28;20037;-74
2020/12/11 05:28:00;;;;;;;25.50;12.57;;;;;;;-0.75;86.57;97318.38;5055278;28;20025;-74
2020/12/11 05:30:25;;;;;;;25.48;12.57;;;;;;;-0.64;86.47;97324.31;5054978;28;20036;-74
2020/12/11 05:32:56;;;;;;;30.63;12.55;;;;;;;-0.72;86.54;97315.38;5054990;28;20411;-74
2020/12/11 05:35:30;;;;;;;27.67;12.55;;;;;;;-0.65;86.54;97335.97;5053161;28;20032;-74
2020/12/11 05:38:04;;;;;;;28.35;13.15;;;;;;;-0.90;87.25;97328.81;5054502;28;20431;-74
2020/12/11 05:40:29;;;;;;;33.05;14.05;;;;;;;-0.95;87.95;97340.94;5040156;28;20100;-75
2020/12/11 05:43:13;;;;;;;29.38;13.70;;;;;;;-1.13;88.96;97347.28;5041784;28;20067;-74
2020/12/11 05:45:47;;;;;;;28.13;12.90;;;;;;;-1.32;89.04;97345.75;5054144;28;20025;-74
2020/12/11 05:48:13;;;;;;;39.17;14.43;;;;;;;-1.55;89.59;97337.63;5054577;28;20051;-75
2020/12/11 05:50:38;;;;;;;28.92;12.57;;;;;;;-1.56;89.83;97353.69;5054520;28;20633;-74
2020/12/11 05:53:03;;;;;;;30.73;14.27;;;;;;;-1.68;90.36;97339.88;5053168;28;20028;-74
2020/12/11 05:55:29;;;;;;;30.13;13.52;;;;;;;-1.57;90.15;97334.28;5055093;28;20108;-74
2020/12/11 05:57:56;;;;;;;29.55;13.75;;;;;;;-1.45;90.30;97345.41;5055233;28;20024;-75
2020/12/11 06:00:22;;;;;;;32.13;14.68;;;;;;;-1.37;90.67;97336.63;5054420;28;20029;-75
2020/12/11 06:02:51;;;;;;;29.58;13.65;;;;;;;-1.44;90.21;97319.69;5051780;28;20029;-75
2020/12/11 06:05:19;;;;;;;32.30;14.93;;;;;;;-1.27;89.86;97324.03;5045528;28;20025;-74
2020/12/11 06:07:47;;;;;;;30.80;14.15;;;;;;;-1.16;89.65;97317.56;5051154;28;20433;-75
2020/12/11 06:10:14;;;;;;;33.38;15.45;;;;;;;-1.09;89.51;97323.06;5050173;28;20029;-78
2020/12/11 06:12:40;;;;;;;28.52;13.63;;;;;;;-1.19;89.37;97305.47;5052474;28;20020;-75
2020/12/11 06:15:08;;;;;;;35.40;14.50;;;;;;;-1.09;89.74;97318.56;5047695;28;20029;-77
2020/12/11 06:17:43;;;;;;;26.95;12.85;;;;;;;-1.06;89.48;97320.88;5052036;28;20029;-75
2020/12/11 06:20:10;;;;;;;32.80;15.18;;;;;;;-1.10;89.08;97311.63;5053964;28;20163;-75
2020/12/11 06:22:36;;;;;;;33.28;14.48;;;;;;;-1.00;89.01;97320.22;5054155;28;20025;-73
2020/12/11 06:25:24;;;;;;;33.80;14.45;;;;;;;-1.03;88.54;97323.19;5053599;28;20029;-73
2020/12/11 06:27:51;;;;;;;33.05;13.52;;;;;;;-1.04;88.78;97320.72;5054502;28;20028;-75
2020/12/11 06:30:30;;;;;;;30.35;14.02;;;;;;;-1.05;88.39;97308.44;5051004;28;20082;-80
2020/12/11 06:32:56;;;;;;;;;;;;;;;-1.02;88.21;97301.00;5051691;28;20024;-72
2020/12/11 06:35:22;;;;;;;29.73;13.13;;;;;;;-1.02;88.16;97298.34;5051431;28;19913;-73
2020/12/11 06:37:48;;;;;;;31.77;13.63;;;;;;;-0.99;88.26;97302.47;5052434;28;20028;-75
2020/12/11 06:40:13;;;;;;;31.00;13.73;;;;;;;-1.01;88.29;97293.84;5052194;28;20017;-75
2020/12/11 06:42:41;;;;;;;32.42;14.80;;;;;;;-0.90;88.20;97290.84;5053902;28;20083;-73
2020/12/11 06:45:24;;;;;;;31.13;13.93;;;;;;;-0.88;87.46;97292.34;5052275;28;20025;-73
2020/12/11 06:48:00;;;;;;;29.10;12.82;;;;;;;-0.91;87.31;97278.56;5052351;28;20021;-74
2020/12/11 06:50:30;;;;;;;29.88;13.77;;;;;;;-0.81;87.11;97278.38;5049276;28;20037;-72
2020/12/11 06:52:56;;;;;;;29.90;13.00;;;;;;;-0.78;86.72;97281.53;5049146;28;20059;-71
2020/12/11 06:55:42;;;;;;;27.98;12.60;;;;;;;-0.78;86.51;97273.56;5048230;28;20028;-73
2020/12/11 06:58:17;;;;;;;28.95;12.80;;;;;;;-0.67;86.37;97267.06;5037017;28;20427;-74
2020/12/11 07:00:51;;;;;;;27.35;11.85;;;;;;;-0.62;86.51;97271.88;5047385;28;20104;-74
2020/12/11 07:03:18;;;;;;;27.65;12.88;;;;;;;-0.62;86.30;97267.38;5048420;28;20029;-73
2020/12/11 07:05:44;;;;;;;29.52;13.23;;;;;;;-0.65;86.17;97267.72;5050148;28;20025;-75
2020/12/11 07:08:16;;;;;;;30.90;13.25;;;;;;;-0.53;85.71;97261.03;5051856;28;20017;-74
2020/12/11 07:10:43;;;;;;;34.03;13.02;;;;;;;-0.54;85.99;97250.59;5051171;28;20032;-74
2020/12/11 07:13:10;;;;;;;25.02;11.38;;;;;;;-0.59;85.95;97234.34;5046021;28;22935;-74
2020/12/11 07:15:37;;;;;;;29.05;13.57;;;;;;;-0.54;85.21;97242.63;5047590;28;20021;-74
2020/12/11 07:18:03;;;;;;;29.42;12.82;;;;;;;-0.49;84.68;97242.94;5037301;28;20021;-75
2020/12/11 07:20:28;;;;;;;32.28;14.32;;;;;;;-0.40;84.96;97241.06;5046196;28;20059;-75
2020/12/11 07:22:59;;;;;;;39.85;14.80;;;;;;;-0.37;84.61;97249.50;5039169;28;20029;-74
2020/12/11 07:25:24;;;;;;;31.80;14.48;;;;;;;-0.52;85.10;97238.81;5038454;28;20033;-74
2020/12/11 07:28:00;;;;;;;37.25;14.10;;;;;;;-0.48;85.55;97236.63;5046516;28;20433;-75
2020/12/11 07:30:26;;;;;;;36.47;16.38;;;;;;;-0.41;85.32;97242.91;5044698;28;20025;-76
2020/12/11 07:32:53;;;;;;;34.60;14.85;;;;;;;-0.40;85.28;97222.47;5050144;28;20028;-76
2020/12/11 07:35:20;;;;;;;37.05;15.15;;;;;;;-0.45;84.80;97225.63;5048998;28;20017;-76
2020/12/11 07:37:53;;;;;;;35.75;14.50;;;;;;;-0.33;85.01;97226.91;5052268;28;20025;-76
2020/12/11 07:40:20;;;;;;;37.05;15.20;;;;;;;-0.46;85.26;97206.22;5052114;28;20044;-76
2020/12/11 07:42:48;;;;;;;36.13;14.60;;;;;;;-0.37;85.07;97217.63;5039156;28;20049;-78
2020/12/11 07:45:31;;;;;;;31.92;14.60;;;;;;;-0.27;84.68;97210.28;5034916;28;20066;-78
2020/12/11 07:47:57;;;;;;;30.95;13.98;;;;;;;-0.24;84.48;97209.94;5051454;28;20021;-76
2020/12/11 07:50:24;;;;;;;32.63;14.65;;;;;;;-0.13;84.08;97199.91;5050984;28;20053;-78
2020/12/11 07:52:51;;;;;;;33.70;15.77;;;;;;;-0.28;83.93;97170.59;5052185;28;20021;-77
2020/12/11 07:55:16;;;;;;;35.05;15.80;;;;;;;-0.06;83.78;97187.56;5040023;28;20032;-76
2020/12/11 07:57:49;;;;;;;32.38;14.65;;;;;;;-0.05;83.52;97192.72;5045277;28;20021;-75
2020/12/11 08:00:14;;;;;;;32.30;13.85;;;;;;;-0.01;83.33;97171.91;5048016;28;20573;-75
2020/12/11 08:02:40;;;;;;;29.58;13.85;;;;;;;0.04;82.50;97171.41;5048160;28;20104;-75
2020/12/11 08:05:06;;;;;;;30.45;14.02;;;;;;;-0.02;83.36;97178.25;5052098;28;20103;-77
2020/12/11 08:07:32;;;;;;;30.88;14.35;;;;;;;0.18;82.40;97181.25;5052226;28;20021;-76
2020/12/11 08:10:18;;;;;;;30.50;14.23;;;;;;;0.31;82.16;97192.13;5051961;28;20025;-76
2020/12/11 08:12:44;;;;;;;31.65;14.20;;;;;;;0.24;81.84;97175.25;5050471;28;20025;-76
2020/12/11 08:15:10;;;;;;;30.02;14.05;;;;;;;0.35;81.42;97195.25;5055620;28;20028;-72
2020/12/11 08:17:37;;;;;;;29.67;12.80;;;;;;;0.40;81.24;97196.38;5047042;28;20021;-72
2020/12/11 08:20:08;;;;;;;27.75;12.77;;;;;;;0.51;81.10;97202.28;5055860;28;20398;-77
2020/12/11 08:22:36;;;;;;;29.40;13.30;;;;;;;0.69;80.15;97192.16;5056339;28;20041;-76
2020/12/11 08:25:22;;;;;;;31.85;13.57;;;;;;;1.09;79.17;97198.06;5055964;28;20051;-79
2020/12/11 08:27:52;;;;;;;34.50;15.23;;;;;;;1.52;77.36;97180.41;5055844;28;20039;-78
2020/12/11 08:30:19;;;;;;;26.45;12.60;;;;;;;2.33;74.65;97177.59;5043201;28;20017;-79
2020/12/11 08:32:48;;;;;;;30.95;14.30;;;;;;;3.02;72.35;97194.78;5054206;28;20031;-77
2020/12/11 08:35:17;;;;;;;27.35;13.93;;;;;;;2.42;73.77;97192.47;5056687;28;20039;-76
2020/12/11 08:37:53;;;;;;;30.50;13.98;;;;;;;2.00;75.39;97189.78;5053333;28;20029;-79
2020/12/11 08:40:18;;;;;;;33.47;15.27;;;;;;;1.85;76.24;97179.97;5050929;28;20474;-77
2020/12/11 08:42:57;;;;;;;28.92;13.88;;;;;;;1.33;77.74;97175.66;5055808;28;20032;-77
2020/12/11 08:51:26;;;;;;;27.58;13.18;;;;;;;1.16;78.63;97171.53;5044309;28;20056;-75
2020/12/11 08:53:50;;;;;;;33.60;14.70;;;;;;;1.56;77.42;97172.03;5054229;28;20393;-76
2020/12/11 08:56:15;;;;;;;38.25;14.77;;;;;;;1.38;77.38;97172.44;5055333;28;20024;-76
2020/12/11 08:58:41;;;;;;;27.52;14.02;;;;;;;1.58;76.87;97172.69;5054411;28;20032;-76
2020/12/11 09:01:06;;;;;;;33.45;14.35;;;;;;;1.43;77.68;97181.50;5054994;28;20471;-78
2020/12/11 09:03:31;;;;;;;30.98;15.15;;;;;;;1.43;77.49;97160.19;5063278;28;20059;-77
2020/12/11 09:05:57;;;;;;;28.05;12.85;;;;;;;1.38;77.38;97159.94;5068318;28;20112;-77
2020/12/11 09:08:22;;;;;;;27.30;13.65;;;;;;;1.58;77.69;97160.19;5055723;28;20470;-76
2020/12/11 09:10:47;;;;;;;26.98;13.43;;;;;;;1.93;76.29;97168.34;5055143;28;20025;-77
2020/12/11 09:13:12;;;;;;;25.35;13.45;;;;;;;2.09;75.77;97153.94;5055297;28;20029;-76
2020/12/11 09:15:38;;;;;;;27.73;12.38;;;;;;;2.61;73.96;97160.78;5055207;28;20032;-76
2020/12/11 09:18:03;;;;;;;28.02;14.00;;;;;;;3.10;72.46;97164.41;5053848;28;20111;-77
2020/12/11 09:20:28;;;;;;;27.52;13.38;;;;;;;3.18;71.32;97156.25;5053310;28;20040;-77
2020/12/11 09:22:55;;;;;;;27.27;13.50;;;;;;;3.11;71.82;97152.69;5052249;28;20020;-77
2020/12/11 09:25:21;;;;;;;24.17;11.75;;;;;;;2.83;71.55;97169.59;5051948;28;20109;-78
2020/12/11 09:27:47;;;;;;;22.00;12.30;;;;;;;2.95;71.15;97161.84;5055069;28;20529;-79
2020/12/11 09:30:34;;;;;;;28.70;12.38;;;;;;;2.68;71.51;97142.97;5055169;28;20052;-79
2020/12/11 09:35:32;;;;;;;26.85;11.63;;;;;;;2.33;73.30;97144.72;5056145;28;20025;-73
2020/12/11 09:37:57;;;;;;;27.25;12.30;;;;;;;2.27;73.23;97149.00;5057945;22;20721;-68
2020/12/11 09:40:34;;;;;;;28.70;12.95;;;;;;;2.24;73.88;97148.56;5048073;28;20036;-68
2020/12/11 09:45:55;;;;;;;25.92;12.23;;;;;;;2.48;73.52;97160.69;5052069;28;20957;-68
2020/12/11 09:49:06;;;;;;;32.63;14.02;;;;;;;2.42;73.71;97168.44;5051511;28;20075;-67
2020/12/11 09:51:21;;;;;;;22.50;9.63;;;;;;;2.39;74.03;97138.66;5046177;28;20044;-71
2020/12/11 09:54:08;;;;;;;23.38;11.65;;;;;;;2.44;73.59;97159.41;5053694;28;20044;-69
2020/12/11 09:56:34;;;;;;;30.58;14.68;;;;;;;2.31;74.16;97160.94;5048014;28;20025;-70
2020/12/11 09:59:27;;;;;;;27.45;13.40;;;;;;;2.32;74.19;97157.25;5048621;28;20418;-69
2020/12/11 10:04:28;;;;;;;27.95;12.98;;;;;;;2.36;74.46;97147.84;5052671;28;20363;-69
2020/12/11 10:06:54;;;;;;;26.67;12.77;;;;;;;2.21;75.01;97135.63;5050565;28;20028;-69
2020/12/11 10:09:19;;;;;;;26.52;13.05;;;;;;;2.21;75.25;97147.09;5048036;28;20108;-70
2020/12/11 10:11:44;;;;;;;30.00;13.43;;;;;;;2.26;75.38;97133.19;5046474;28;20025;-70
2020/12/11 10:16:51;;;;;;;26.50;13.88;;;;;;;2.57;74.31;97125.66;5054347;28;20021;-71
2020/12/11 10:19:17;;;;;;;27.20;13.10;;;;;;;2.83;73.93;97132.19;5041561;28;20025;-71
2020/12/11 10:21:46;;;;;;;27.42;13.27;;;;;;;2.67;73.64;97127.97;5053099;28;20453;-73
2020/12/11 10:24:11;;;;;;;32.05;13.10;;;;;;;2.59;73.66;97110.28;5052528;28;20044;-74
2020/12/11 10:26:40;;;;;;;27.50;12.45;;;;;;;2.30;74.58;97108.59;5053973;28;20055;-74
2020/12/11 10:29:06;;;;;;;24.83;12.18;;;;;;;2.03;74.78;97078.19;5033409;28;20079;-73
2020/12/11 10:31:31;;;;;;;26.35;12.85;;;;;;;2.04;75.02;97095.00;5053448;28;20433;-73
2020/12/11 10:33:56;;;;;;;24.52;12.85;;;;;;;2.00;74.98;97083.91;5053820;28;20542;-71
2020/12/11 10:36:30;;;;;;;28.70;13.07;;;;;;;2.13;75.02;97078.69;5054166;28;20033;-71
2020/12/11 10:38:55;;;;;;;24.10;11.50;;;;;;;2.18;74.42;97075.47;5053026;28;20033;-72
2020/12/11 10:41:22;;;;;;;22.08;11.45;;;;;;;2.39;74.71;97087.94;5055449;28;20043;-76
2020/12/11 10:43:48;;;;;;;24.05;11.52;;;;;;;2.39;73.81;97072.75;5054861;28;20025;-72
2020/12/11 10:46:13;;;;;;;25.10;11.23;;;;;;;2.58;73.51;97087.25;5041283;28;20091;-71
2020/12/11 10:48:39;;;;;;;27.50;12.60;;;;;;;2.61;73.96;97059.34;5035965;28;20033;-74
2020/12/11 10:51:04;;;;;;;28.05;12.85;;;;;;;2.52;73.92;97063.19;5052582;28;20090;-71
2020/12/11 10:53:29;;;;;;;23.25;11.05;;;;;;;2.39;73.31;97071.94;5053083;28;20060;-71
2020/12/11 10:55:54;;;;;;;25.38;11.68;;;;;;;2.52;74.08;97071.19;5063352;28;20397;-69
2020/12/11 10:58:20;;;;;;;28.27;12.35;;;;;;;2.48;74.18;97080.59;5058753;28;20022;-66
2020/12/11 11:00:45;;;;;;;24.92;12.80;;;;;;;2.40;74.62;97066.38;5043989;28;20567;-68
2020/12/11 11:03:11;;;;;;;25.05;12.15;;;;;;;2.46;74.30;97067.44;5044891;28;20402;-74
2020/12/11 11:05:37;;;;;;;26.25;12.82;;;;;;;2.39;74.57;97059.41;5053173;28;20055;-73
2020/12/11 11:08:03;;;;;;;26.30;13.30;;;;;;;2.51;74.60;97062.34;5047505;28;20490;-70
2020/12/11 11:10:38;;;;;;;26.67;12.35;;;;;;;2.57;73.91;97048.22;5034093;28;20029;-70
2020/12/11 11:13:54;;;;;;;29.05;12.30;;;;;;;2.74;73.84;97045.25;5034400;28;20036;-68
2020/12/11 11:15:55;;;;;;;21.50;10.82;;;;;;;2.82;73.93;97050.41;5044803;28;20044;-67
2020/12/11 11:18:44;;;;;;;22.35;11.45;;;;;;;2.89;73.34;97042.44;5042094;28;20032;-67
2020/12/11 11:28:31;;;;;;;27.73;11.98;;;;;;;2.69;73.88;97016.44;5039722;28;20467;-68
2020/12/11 11:30:56;;;;;;;23.77;11.02;;;;;;;2.58;74.41;97004.47;5072063;28;20039;-68
2020/12/11 11:33:21;;;;;;;22.48;11.20;;;;;;;2.76;74.55;97020.00;5045985;28;20120;-72
2020/12/11 11:35:49;;;;;;;20.58;10.50;;;;;;;2.88;74.51;97022.09;5053031;28;20061;-71
2020/12/11 11:38:16;;;;;;;20.63;10.57;;;;;;;3.04;74.16;97009.22;5052730;28;20430;-74
2020/12/11 11:40:42;;;;;;;22.10;10.20;;;;;;;3.27;72.94;97010.72;5052020;28;20269;-74
2020/12/11 11:43:08;;;;;;;20.23;10.23;;;;;;;3.52;72.26;97011.00;5052981;28;20043;-74
2020/12/11 11:45:36;;;;;;;21.95;10.68;;;;;;;4.18;70.17;96991.50;5052353;28;20016;-72
2020/12/11 11:48:05;;;;;;;22.77;10.40;;;;;;;4.81;68.55;96974.88;5047300;28;20028;-73
2020/12/11 11:53:20;;;;;;;18.35;9.65;;;;;;;5.53;65.67;96969.34;5039847;28;20082;-74